createdAt,value
2018-05-07T00:00:15.531Z,5.00
2018-05-07T00:01:18.063Z,5.60
2018-05-07T00:02:21.375Z,4.95
2018-05-07T00:03:23.938Z,5.15
2018-05-07T00:04:26.456Z,5.28
2018-05-07T00:05:28.996Z,5.62
2018-05-07T00:06:31.511Z,5.55
2018-05-07T00:07:34.052Z,5.07
2018-05-07T00:08:36.617Z,5.85
2018-05-07T00:09:39.159Z,5.30
2018-05-07T00:10:41.696Z,5.12
2018-05-07T00:11:44.246Z,5.00
2018-05-07T00:12:46.771Z,5.28
2018-05-07T00:13:49.349Z,5.90
2018-05-07T00:14:51.868Z,5.20
2018-05-07T00:15:54.397Z,4.95
2018-05-07T00:16:57.684Z,5.25
2018-05-07T00:18:00.972Z,5.07
2018-05-07T00:19:04.296Z,5.15
2018-05-07T00:20:06.825Z,5.35
2018-05-07T00:21:10.113Z,5.22
2018-05-07T00:22:12.639Z,5.60
2018-05-07T00:23:15.191Z,4.95
2018-05-07T00:24:17.736Z,5.55
2018-05-07T00:25:20.309Z,5.22
2018-05-07T00:26:22.844Z,5.20
2018-05-07T00:27:26.136Z,4.78
2018-05-07T00:28:28.671Z,5.50
2018-05-07T00:29:31.191Z,5.65
2018-05-07T00:30:33.776Z,4.85
2018-05-07T00:31:37.058Z,4.80
2018-05-07T00:32:39.571Z,5.97
2018-05-07T00:33:42.859Z,5.28
2018-05-07T00:34:45.401Z,4.82
2018-05-07T00:35:47.964Z,4.75
2018-05-07T00:36:50.492Z,5.20
2018-05-07T00:37:53.016Z,4.90
2018-05-07T00:38:56.304Z,5.50
2018-05-07T00:39:59.611Z,5.40
2018-05-07T00:41:02.163Z,4.90
2018-05-07T00:42:04.699Z,5.10
2018-05-07T00:43:07.225Z,5.65
2018-05-07T00:44:09.744Z,5.70
2018-05-07T00:45:13.065Z,4.70
2018-05-07T00:46:15.586Z,4.90
2018-05-07T00:47:18.111Z,4.65
2018-05-07T00:48:20.671Z,5.37
2018-05-07T00:49:23.196Z,5.37
2018-05-07T00:50:26.474Z,5.60
2018-05-07T00:51:29.762Z,5.03
2018-05-07T00:52:33.048Z,5.37
2018-05-07T00:53:36.372Z,5.22
2018-05-07T00:54:50.725Z,5.07
2018-05-07T00:55:54.030Z,5.20
2018-05-07T00:56:56.552Z,5.10
2018-05-07T00:57:59.111Z,5.47
2018-05-07T00:59:01.634Z,5.70
2018-05-07T01:00:04.171Z,5.82
2018-05-07T01:01:06.701Z,4.78
2018-05-07T01:02:09.276Z,5.32
2018-05-07T01:03:11.799Z,5.90
2018-05-07T01:04:14.324Z,4.95
2018-05-07T01:05:16.885Z,4.93
2018-05-07T01:06:19.439Z,5.22
2018-05-07T01:07:21.969Z,5.35
2018-05-07T01:08:24.483Z,4.78
2018-05-07T01:09:27.005Z,5.20
2018-05-07T01:10:29.551Z,4.65
2018-05-07T01:11:32.128Z,5.15
2018-05-07T01:12:34.658Z,5.03
2018-05-07T01:13:37.193Z,5.50
2018-05-07T01:14:39.719Z,5.28
2018-05-07T01:15:42.291Z,4.75
2018-05-07T01:16:44.854Z,4.85
2018-05-07T01:17:47.398Z,5.40
2018-05-07T01:18:49.920Z,5.18
2018-05-07T01:21:02.844Z,5.65
2018-05-07T01:22:05.399Z,5.20
2018-05-07T01:23:08.683Z,5.45
2018-05-07T01:24:12.007Z,5.30
2018-05-07T01:25:14.534Z,4.95
2018-05-07T01:26:17.826Z,5.62
2018-05-07T01:27:20.361Z,5.30
2018-05-07T01:28:22.885Z,5.30
2018-05-07T01:29:25.540Z,4.90
2018-05-07T01:30:28.060Z,5.25
2018-05-07T01:31:30.588Z,5.53
2018-05-07T01:32:33.118Z,5.15
2018-05-07T01:33:36.417Z,5.32
2018-05-07T01:34:38.975Z,5.10
2018-05-07T01:35:41.508Z,5.10
2018-05-07T01:36:44.020Z,4.80
2018-05-07T01:37:46.549Z,5.43
2018-05-07T01:38:49.113Z,5.10
2018-05-07T01:39:51.640Z,5.18
2018-05-07T01:40:54.166Z,5.50
2018-05-07T01:41:57.464Z,4.72
2018-05-07T01:42:59.988Z,5.70
2018-05-07T01:44:02.544Z,5.25
2018-05-07T01:45:05.071Z,5.20
2018-05-07T01:46:07.634Z,4.62
2018-05-07T01:47:10.147Z,5.20
2018-05-07T01:48:12.925Z,5.20
2018-05-07T01:49:15.484Z,5.45
2018-05-07T01:50:18.036Z,5.40
2018-05-07T01:51:20.557Z,5.55
2018-05-07T01:52:23.100Z,4.70
2018-05-07T01:53:25.660Z,4.90
2018-05-07T01:54:28.185Z,4.50
2018-05-07T01:55:30.712Z,5.30
2018-05-07T01:56:34.009Z,4.05
2018-05-07T01:57:36.533Z,4.90
2018-05-07T01:58:39.100Z,4.65
2018-05-07T01:59:41.637Z,5.20
2018-05-07T02:00:44.150Z,4.40
2018-05-07T02:01:47.450Z,4.50
2018-05-07T02:02:50.742Z,4.15
2018-05-07T02:03:53.321Z,4.40
2018-05-07T02:04:55.855Z,4.22
2018-05-07T02:05:59.149Z,4.68
2018-05-07T02:07:02.434Z,3.97
2018-05-07T02:08:04.957Z,4.20
2018-05-07T02:09:07.516Z,4.82
2018-05-07T02:10:10.114Z,5.07
2018-05-07T02:11:12.638Z,5.22
2018-05-07T02:13:23.981Z,4.85
2018-05-07T02:14:27.261Z,4.78
2018-05-07T02:15:30.584Z,5.12
2018-05-07T02:16:33.108Z,4.85
2018-05-07T02:17:36.403Z,5.28
2018-05-07T02:18:38.928Z,5.68
2018-05-07T02:19:41.496Z,4.60
2018-05-07T02:20:44.017Z,5.05
2018-05-07T02:21:46.542Z,5.10
2018-05-07T02:22:49.060Z,4.93
2018-05-07T02:23:51.580Z,4.97
2018-05-07T02:24:54.912Z,5.20
2018-05-07T02:25:57.436Z,5.57
2018-05-07T02:27:00.709Z,5.10
2018-05-07T02:28:03.227Z,5.25
2018-05-07T02:29:05.748Z,4.45
2018-05-07T02:30:09.068Z,5.30
2018-05-07T02:31:11.642Z,5.43
2018-05-07T02:32:14.948Z,5.07
2018-05-07T02:33:17.464Z,4.68
2018-05-07T02:34:19.989Z,4.97
2018-05-07T02:35:22.513Z,5.37
2018-05-07T02:36:25.041Z,5.82
2018-05-07T02:37:28.357Z,5.47
2018-05-07T02:38:30.879Z,5.20
2018-05-07T02:39:33.434Z,5.53
2018-05-07T02:40:35.949Z,5.65
2018-05-07T02:41:38.471Z,5.37
2018-05-07T02:42:40.988Z,5.37
2018-05-07T02:43:43.507Z,5.10
2018-05-07T02:44:46.077Z,5.12
2018-05-07T02:45:48.606Z,5.25
2018-05-07T02:46:51.136Z,4.80
2018-05-07T02:47:53.662Z,5.10
2018-05-07T02:48:56.184Z,4.80
2018-05-07T02:49:58.762Z,5.07
2018-05-07T02:51:01.293Z,4.82
2018-05-07T02:52:04.590Z,4.68
2018-05-07T02:53:07.121Z,5.35
2018-05-07T02:54:09.636Z,5.30
2018-05-07T02:55:12.206Z,4.90
2018-05-07T02:56:14.737Z,4.72
2018-05-07T02:57:18.032Z,5.80
2018-05-07T02:58:20.564Z,5.00
2018-05-07T02:59:23.101Z,4.93
2018-05-07T03:00:25.669Z,4.22
2018-05-07T03:01:28.195Z,5.15
2018-05-07T03:02:31.479Z,5.18
2018-05-07T03:03:34.802Z,4.68
2018-05-07T03:04:37.336Z,4.80
2018-05-07T03:05:39.888Z,4.50
2018-05-07T03:06:43.183Z,4.60
2018-05-07T03:07:45.765Z,4.68
2018-05-07T03:08:48.284Z,5.15
2018-05-07T03:09:50.800Z,4.37
2018-05-07T03:10:53.323Z,3.90
2018-05-07T03:11:55.840Z,3.90
2018-05-07T03:12:58.414Z,5.10
2018-05-07T03:14:00.946Z,4.25
2018-05-07T03:15:03.473Z,4.35
2018-05-07T03:16:05.999Z,4.45
2018-05-07T03:17:08.515Z,4.85
2018-05-07T03:18:11.075Z,4.43
2018-05-07T03:19:13.606Z,4.25
2018-05-07T03:20:16.133Z,4.95
2018-05-07T03:21:19.422Z,4.90
2018-05-07T03:22:22.752Z,4.80
2018-05-07T03:23:25.270Z,4.40
2018-05-07T03:24:28.557Z,4.50
2018-05-07T03:25:31.835Z,4.70
2018-05-07T03:26:35.112Z,4.70
2018-05-07T03:27:38.435Z,5.00
2018-05-07T03:28:40.955Z,5.80
2018-05-07T03:29:43.469Z,5.30
2018-05-07T03:30:45.988Z,4.72
2018-05-07T03:31:49.275Z,4.95
2018-05-07T03:32:51.851Z,5.12
2018-05-07T03:33:55.140Z,5.47
2018-05-07T03:34:58.423Z,5.30
2018-05-07T03:36:01.753Z,5.25
2018-05-07T03:37:04.273Z,5.12
2018-05-07T03:38:07.560Z,5.07
2018-05-07T03:39:10.849Z,5.00
2018-05-07T03:40:13.375Z,5.20
2018-05-07T03:41:15.932Z,5.05
2018-05-07T03:42:18.456Z,5.55
2018-05-07T03:43:20.973Z,5.43
2018-05-07T03:44:23.528Z,4.95
2018-05-07T03:45:26.043Z,5.45
2018-05-07T03:46:28.573Z,5.87
2018-05-07T03:47:31.101Z,5.45
2018-05-07T03:48:33.620Z,5.03
2018-05-07T03:49:36.953Z,5.37
2018-05-07T03:50:39.483Z,5.90
2018-05-07T03:51:42.768Z,5.35
2018-05-07T03:52:46.048Z,5.35
2018-05-07T03:53:49.353Z,6.00
2018-05-07T03:54:51.919Z,5.15
2018-05-07T03:55:54.435Z,5.45
2018-05-07T03:56:56.965Z,5.85
2018-05-07T03:57:59.492Z,5.25
2018-05-07T03:59:02.789Z,5.45
2018-05-07T04:00:05.353Z,5.62
2018-05-07T04:01:08.642Z,5.75
2018-05-07T04:02:11.175Z,5.15
2018-05-07T04:03:13.688Z,4.68
2018-05-07T04:04:17.044Z,5.40
2018-05-07T04:05:20.369Z,4.60
2018-05-07T04:06:22.883Z,5.57
2018-05-07T04:07:25.463Z,5.25
2018-05-07T04:08:27.924Z,5.10
2018-05-07T04:09:31.231Z,5.55
2018-05-07T04:10:33.802Z,4.75
2018-05-07T04:11:36.317Z,6.12
2018-05-07T04:12:38.866Z,5.40
2018-05-07T04:13:41.381Z,4.60
2018-05-07T04:14:44.668Z,5.03
2018-05-07T04:15:47.245Z,5.80
2018-05-07T04:17:01.644Z,5.20
2018-05-07T04:18:16.037Z,5.60
2018-05-07T04:19:30.600Z,4.95
2018-05-07T04:20:44.951Z,5.30
2018-05-07T04:21:59.336Z,5.53
2018-05-07T04:23:13.707Z,5.62
2018-05-07T04:24:16.233Z,5.55
2018-05-07T04:25:18.763Z,6.03
2018-05-07T04:26:21.277Z,5.12
2018-05-07T04:27:23.855Z,5.62
2018-05-07T04:28:27.147Z,5.55
2018-05-07T04:29:30.437Z,4.93
2018-05-07T04:30:32.955Z,6.03
2018-05-07T04:31:35.479Z,5.40
2018-05-07T04:32:38.040Z,5.55
2018-05-07T04:33:40.583Z,5.15
2018-05-07T04:34:43.867Z,5.90
2018-05-07T04:35:47.149Z,5.50
2018-05-07T04:36:50.434Z,5.62
2018-05-07T04:37:53.754Z,6.00
2018-05-07T04:38:56.280Z,6.05
2018-05-07T04:39:59.559Z,5.78
2018-05-07T04:41:02.086Z,5.30
2018-05-07T04:42:04.833Z,5.50
2018-05-07T04:43:07.479Z,5.00
2018-05-07T04:44:09.941Z,5.25
2018-05-07T04:45:13.276Z,6.12
2018-05-07T04:46:15.816Z,5.65
2018-05-07T04:47:18.424Z,5.18
2018-05-07T04:48:20.986Z,5.68
2018-05-07T04:49:23.517Z,5.97
2018-05-07T04:50:26.084Z,5.10
2018-05-07T04:51:28.605Z,5.62
2018-05-07T04:52:31.128Z,5.90
2018-05-07T04:53:33.644Z,6.47
2018-05-07T04:54:36.169Z,6.15
2018-05-07T04:55:38.737Z,5.82
2018-05-07T04:56:41.256Z,5.85
2018-05-07T04:57:44.535Z,5.80
2018-05-07T04:58:47.830Z,6.50
2018-05-07T04:59:51.112Z,5.93
2018-05-07T05:00:54.431Z,6.20
2018-05-07T05:01:56.959Z,5.07
2018-05-07T05:03:00.247Z,5.68
2018-05-07T05:04:03.543Z,6.45
2018-05-07T05:05:06.070Z,6.22
2018-05-07T05:06:08.637Z,5.95
2018-05-07T05:07:11.231Z,6.40
2018-05-07T05:08:13.693Z,6.12
2018-05-07T05:09:16.978Z,6.55
2018-05-07T05:10:20.264Z,6.00
2018-05-07T05:11:23.597Z,6.40
2018-05-07T05:12:26.124Z,6.68
2018-05-07T05:13:28.649Z,5.72
2018-05-07T05:14:31.165Z,6.25
2018-05-07T05:15:33.680Z,6.05
2018-05-07T05:16:36.244Z,6.32
2018-05-07T05:17:38.766Z,6.57
2018-05-07T05:18:41.286Z,6.05
2018-05-07T05:19:43.807Z,6.60
2018-05-07T05:20:46.329Z,5.65
2018-05-07T05:21:49.646Z,6.43
2018-05-07T05:22:52.169Z,6.43
2018-05-07T05:23:54.688Z,6.22
2018-05-07T05:24:57.244Z,5.68
2018-05-07T05:25:59.766Z,5.85
2018-05-07T05:27:02.299Z,5.93
2018-05-07T05:28:04.834Z,5.95
2018-05-07T05:29:07.364Z,6.22
2018-05-07T05:30:09.942Z,6.00
2018-05-07T05:31:13.236Z,5.20
2018-05-07T05:32:16.521Z,5.50
2018-05-07T05:33:19.800Z,5.80
2018-05-07T05:34:23.089Z,5.68
2018-05-07T05:35:26.411Z,5.40
2018-05-07T05:36:28.937Z,5.05
2018-05-07T05:37:32.216Z,5.35
2018-05-07T05:38:35.519Z,6.18
2018-05-07T05:39:38.037Z,5.72
2018-05-07T05:40:40.613Z,6.55
2018-05-07T05:41:43.147Z,5.93
2018-05-07T05:42:45.672Z,5.80
2018-05-07T05:43:49.031Z,6.45
2018-05-07T05:44:51.524Z,5.97
2018-05-07T05:45:54.897Z,7.45
2018-05-07T05:46:58.195Z,6.35
2018-05-07T05:48:00.715Z,5.57
2018-05-07T05:49:03.245Z,5.80
2018-05-07T05:50:05.805Z,6.90
2018-05-07T05:51:08.389Z,6.65
2018-05-07T05:52:10.926Z,6.30
2018-05-07T05:53:14.217Z,6.40
2018-05-07T05:54:16.738Z,6.12
2018-05-07T05:55:19.260Z,5.90
2018-05-07T05:56:21.902Z,6.10
2018-05-07T05:58:33.392Z,6.05
2018-05-07T05:59:36.689Z,6.35
2018-05-07T06:00:39.224Z,6.60
2018-05-07T06:01:41.795Z,6.50
2018-05-07T06:02:45.083Z,6.55
2018-05-07T06:03:48.405Z,6.15
2018-05-07T06:04:50.911Z,6.68
2018-05-07T06:05:53.446Z,6.90
2018-05-07T06:06:56.024Z,6.45
2018-05-07T06:07:58.544Z,6.72
2018-05-07T06:09:01.100Z,6.75
2018-05-07T06:10:04.384Z,6.30
2018-05-07T06:11:07.667Z,6.50
2018-05-07T06:12:10.222Z,6.25
2018-05-07T06:13:12.748Z,5.82
2018-05-07T06:14:15.280Z,6.18
2018-05-07T06:15:17.805Z,6.65
2018-05-07T06:16:20.333Z,6.37
2018-05-07T06:17:22.909Z,6.70
2018-05-07T06:18:25.446Z,6.07
2018-05-07T06:19:27.981Z,6.65
2018-05-07T06:20:30.568Z,7.65
2018-05-07T06:21:33.857Z,6.55
2018-05-07T06:22:37.148Z,6.55
2018-05-07T06:23:39.672Z,6.95
2018-05-07T06:24:42.196Z,7.18
2018-05-07T06:25:44.769Z,6.45
2018-05-07T06:26:47.296Z,5.80
2018-05-07T06:27:50.592Z,6.53
2018-05-07T06:28:53.109Z,7.10
2018-05-07T06:29:55.632Z,6.97
2018-05-07T06:30:58.301Z,7.10
2018-05-07T06:32:00.849Z,6.68
2018-05-07T06:33:04.138Z,6.72
2018-05-07T06:34:06.682Z,6.30
2018-05-07T06:35:09.216Z,7.55
2018-05-07T06:36:11.765Z,6.50
2018-05-07T06:37:14.320Z,6.85
2018-05-07T06:38:16.842Z,6.65
2018-05-07T06:39:19.377Z,6.50
2018-05-07T06:40:21.951Z,6.57
2018-05-07T06:41:24.486Z,6.70
2018-05-07T06:42:27.042Z,8.02
2018-05-07T06:43:29.563Z,7.00
2018-05-07T06:44:32.078Z,7.12
2018-05-07T06:45:34.682Z,7.22
2018-05-07T06:46:37.195Z,6.80
2018-05-07T06:47:40.489Z,6.75
2018-05-07T06:48:43.089Z,7.72
2018-05-07T06:49:45.630Z,6.95
2018-05-07T06:50:48.210Z,7.50
2018-05-07T06:51:50.731Z,7.85
2018-05-07T06:52:54.030Z,6.72
2018-05-07T06:53:57.333Z,7.10
2018-05-07T06:54:59.863Z,7.95
2018-05-07T06:56:02.425Z,7.57
2018-05-07T06:57:04.957Z,7.80
2018-05-07T06:58:07.480Z,7.32
2018-05-07T06:59:10.773Z,7.72
2018-05-07T07:00:13.300Z,6.72
2018-05-07T07:01:15.875Z,7.30
2018-05-07T07:02:19.208Z,7.00
2018-05-07T07:03:21.737Z,6.72
2018-05-07T07:04:25.036Z,8.00
2018-05-07T07:05:27.573Z,6.72
2018-05-07T07:06:30.144Z,7.10
2018-05-07T07:07:32.723Z,6.90
2018-05-07T07:08:35.331Z,6.57
2018-05-07T07:09:37.779Z,7.30
2018-05-07T07:10:40.315Z,7.12
2018-05-07T07:11:43.660Z,7.05
2018-05-07T07:12:46.188Z,6.97
2018-05-07T07:13:48.721Z,6.90
2018-05-07T07:14:51.244Z,7.47
2018-05-07T07:15:53.793Z,6.70
2018-05-07T07:16:56.356Z,6.93
2018-05-07T07:17:58.887Z,6.82
2018-05-07T07:19:01.403Z,6.00
2018-05-07T07:20:03.925Z,6.07
2018-05-07T07:21:06.451Z,6.28
2018-05-07T07:22:09.011Z,6.75
2018-05-07T07:23:11.547Z,6.90
2018-05-07T07:24:14.080Z,6.95
2018-05-07T07:25:16.608Z,6.70
2018-05-07T07:26:19.139Z,6.97
2018-05-07T07:27:22.472Z,6.18
2018-05-07T07:28:25.017Z,7.18
2018-05-07T07:29:27.556Z,6.97
2018-05-07T07:30:30.888Z,6.15
2018-05-07T07:31:33.416Z,6.47
2018-05-07T07:32:35.950Z,6.28
2018-05-07T07:33:38.496Z,7.10
2018-05-07T07:34:41.029Z,6.20
2018-05-07T07:35:43.595Z,6.60
2018-05-07T07:36:46.112Z,6.43
2018-05-07T07:37:48.681Z,6.30
2018-05-07T07:38:51.979Z,6.35
2018-05-07T07:39:55.261Z,6.65
2018-05-07T07:40:58.539Z,5.62
2018-05-07T07:42:01.828Z,6.07
2018-05-07T07:43:05.251Z,5.95
2018-05-07T07:44:07.784Z,5.53
2018-05-07T07:45:11.079Z,5.78
2018-05-07T07:46:13.595Z,5.40
2018-05-07T07:47:16.137Z,6.40
2018-05-07T07:48:18.708Z,6.50
2018-05-07T07:49:21.229Z,6.32
2018-05-07T07:50:24.517Z,6.00
2018-05-07T07:51:27.809Z,5.60
2018-05-07T07:52:30.415Z,6.00
2018-05-07T07:53:33.706Z,5.62
2018-05-07T07:54:36.235Z,5.12
2018-05-07T07:55:38.764Z,5.55
2018-05-07T07:56:41.300Z,5.28
2018-05-07T07:57:43.819Z,5.12
2018-05-07T07:58:47.152Z,5.93
2018-05-07T07:59:49.676Z,5.53
2018-05-07T08:00:53.012Z,5.25
2018-05-07T08:01:55.514Z,5.07
2018-05-07T08:02:58.805Z,4.18
2018-05-07T08:04:02.119Z,4.55
2018-05-07T08:05:04.639Z,4.55
2018-05-07T08:06:07.164Z,4.65
2018-05-07T08:07:09.679Z,4.55
2018-05-07T08:08:12.972Z,4.60
2018-05-07T08:09:16.299Z,4.45
2018-05-07T08:10:18.824Z,4.15
2018-05-07T08:11:22.104Z,4.75
2018-05-07T08:12:25.471Z,3.87
2018-05-07T08:13:27.939Z,3.80
2018-05-07T08:14:30.514Z,4.00
2018-05-07T08:15:33.790Z,3.90
2018-05-07T08:16:37.080Z,4.10
2018-05-07T08:17:40.363Z,4.22
2018-05-07T08:18:43.656Z,3.30
2018-05-07T08:19:47.123Z,3.60
2018-05-07T08:20:49.540Z,2.97
2018-05-07T08:21:52.055Z,3.72
2018-05-07T08:22:54.585Z,3.83
2018-05-07T08:23:57.111Z,3.78
2018-05-07T08:25:00.521Z,3.62
2018-05-07T08:26:03.043Z,3.60
2018-05-07T08:27:05.563Z,3.40
2018-05-07T08:28:08.093Z,3.65
2018-05-07T08:29:11.380Z,3.15
2018-05-07T08:30:14.030Z,3.55
2018-05-07T08:31:17.324Z,3.30
2018-05-07T08:32:20.604Z,3.40
2018-05-07T08:33:23.891Z,3.10
2018-05-07T08:34:27.183Z,3.85
2018-05-07T08:35:29.748Z,3.40
2018-05-07T08:36:33.082Z,3.45
2018-05-07T08:37:35.559Z,3.75
2018-05-07T08:38:38.080Z,3.37
2018-05-07T08:39:40.599Z,3.50
2018-05-07T08:40:43.158Z,3.62
2018-05-07T08:41:45.724Z,3.60
2018-05-07T08:42:48.252Z,2.80
2018-05-07T08:43:50.780Z,3.17
2018-05-07T08:44:54.064Z,3.25
2018-05-07T08:45:57.353Z,3.83
2018-05-07T08:47:00.772Z,3.25
2018-05-07T08:48:03.295Z,3.75
2018-05-07T08:49:06.580Z,3.55
2018-05-07T08:50:09.146Z,3.03
2018-05-07T08:51:11.731Z,3.97
2018-05-07T08:52:14.273Z,3.62
2018-05-07T08:53:16.804Z,3.03
2018-05-07T08:54:19.331Z,3.10
2018-05-07T08:55:22.678Z,3.80
2018-05-07T08:56:25.172Z,3.20
2018-05-07T08:57:28.507Z,3.37
2018-05-07T08:58:31.048Z,3.35
2018-05-07T08:59:33.566Z,3.20
2018-05-07T09:00:36.092Z,3.70
2018-05-07T09:01:38.614Z,4.05
2018-05-07T09:02:41.936Z,3.40
2018-05-07T09:03:44.460Z,3.60
2018-05-07T09:04:47.764Z,3.75
2018-05-07T09:05:50.324Z,3.55
2018-05-07T09:06:53.617Z,3.37
2018-05-07T09:07:56.165Z,3.20
2018-05-07T09:08:59.456Z,3.20
2018-05-07T09:10:02.757Z,3.55
2018-05-07T09:11:05.339Z,3.25
2018-05-07T09:12:07.868Z,4.25
2018-05-07T09:13:10.403Z,3.78
2018-05-07T09:14:12.946Z,3.42
2018-05-07T09:15:15.474Z,3.35
2018-05-07T09:16:18.058Z,3.87
2018-05-07T09:17:20.604Z,4.20
2018-05-07T09:18:23.137Z,3.85
2018-05-07T09:19:25.681Z,3.70
2018-05-07T09:20:28.203Z,3.58
2018-05-07T09:21:30.776Z,4.43
2018-05-07T09:22:33.317Z,3.70
2018-05-07T09:23:36.613Z,3.80
2018-05-07T09:24:39.937Z,3.80
2018-05-07T09:25:42.466Z,3.90
2018-05-07T09:26:45.802Z,4.00
2018-05-07T09:27:48.333Z,3.30
2018-05-07T09:28:50.878Z,3.62
2018-05-07T09:29:54.169Z,3.53
2018-05-07T09:30:57.455Z,3.47
2018-05-07T09:32:00.777Z,3.53
2018-05-07T09:33:03.312Z,4.03
2018-05-07T09:34:05.872Z,3.80
2018-05-07T09:35:08.411Z,3.20
2018-05-07T09:36:10.981Z,4.18
2018-05-07T09:37:13.514Z,3.30
2018-05-07T09:38:16.751Z,3.87
2018-05-07T09:39:20.048Z,3.62
2018-05-07T09:40:22.577Z,4.03
2018-05-07T09:41:25.137Z,3.17
2018-05-07T09:42:27.663Z,4.00
2018-05-07T09:43:30.214Z,3.60
2018-05-07T09:44:32.753Z,3.10
2018-05-07T09:45:36.415Z,2.90
2018-05-07T09:46:38.952Z,3.03
2018-05-07T09:47:41.470Z,3.03
2018-05-07T09:48:44.014Z,2.77
2018-05-07T09:49:46.550Z,3.10
2018-05-07T09:50:49.137Z,3.30
2018-05-07T09:51:51.664Z,3.43
2018-05-07T09:52:54.202Z,4.03
2018-05-07T09:53:56.731Z,2.80
2018-05-07T09:54:59.310Z,3.00
2018-05-07T09:56:01.836Z,2.80
2018-05-07T09:57:04.392Z,2.80
2018-05-07T09:58:07.691Z,2.90
2018-05-07T09:59:10.236Z,3.10
2018-05-07T10:00:13.593Z,3.20
2018-05-07T10:01:16.136Z,3.17
2018-05-07T10:02:18.669Z,3.10
2018-05-07T10:03:21.192Z,3.00
2018-05-07T10:04:23.725Z,2.57
2018-05-07T10:05:26.300Z,3.40
2018-05-07T10:06:28.833Z,3.30
2018-05-07T10:07:31.361Z,3.17
2018-05-07T10:08:33.928Z,3.07
2018-05-07T10:09:36.440Z,3.00
2018-05-07T10:10:39.004Z,2.93
2018-05-07T10:11:41.531Z,2.90
2018-05-07T10:12:44.062Z,3.47
2018-05-07T10:13:46.600Z,2.60
2018-05-07T10:14:49.159Z,3.60
2018-05-07T10:15:51.699Z,2.50
2018-05-07T10:16:54.235Z,3.07
2018-05-07T10:17:57.566Z,3.40
2018-05-07T10:19:00.861Z,2.90
2018-05-07T10:20:03.383Z,3.27
2018-05-07T10:21:05.951Z,3.10
2018-05-07T10:22:08.476Z,2.70
2018-05-07T10:23:11.005Z,2.77
2018-05-07T10:24:14.322Z,2.63
2018-05-07T10:25:16.849Z,3.00
2018-05-07T10:26:19.411Z,2.80
2018-05-07T10:27:21.939Z,2.60
2018-05-07T10:28:24.476Z,2.93
2018-05-07T10:29:27.000Z,2.80
2018-05-07T10:30:29.625Z,3.13
2018-05-07T10:31:32.199Z,2.70
2018-05-07T10:32:34.725Z,3.03
2018-05-07T10:33:38.012Z,2.90
2018-05-07T10:34:41.310Z,2.90
2018-05-07T10:35:43.844Z,2.67
2018-05-07T10:36:46.436Z,2.83
2018-05-07T10:37:49.731Z,3.00
2018-05-07T10:38:52.260Z,2.70
2018-05-07T10:39:54.785Z,3.00
2018-05-07T10:40:57.311Z,2.40
2018-05-07T10:41:59.867Z,2.67
2018-05-07T10:43:02.410Z,2.80
2018-05-07T10:44:04.950Z,2.63
2018-05-07T10:45:07.532Z,2.97
2018-05-07T10:46:10.814Z,2.63
2018-05-07T10:47:14.112Z,2.90
2018-05-07T10:48:16.649Z,2.47
2018-05-07T10:49:19.187Z,2.60
2018-05-07T10:50:21.748Z,2.50
2018-05-07T10:51:25.037Z,2.63
2018-05-07T10:52:28.337Z,2.83
2018-05-07T10:53:30.907Z,2.30
2018-05-07T10:54:33.431Z,2.63
2018-05-07T10:55:35.952Z,2.80
2018-05-07T10:56:38.485Z,2.83
2018-05-07T10:57:41.017Z,2.40
2018-05-07T10:58:43.588Z,2.27
2018-05-07T10:59:46.124Z,2.67
2018-05-07T11:00:49.422Z,2.60
2018-05-07T11:01:51.989Z,2.53
2018-05-07T11:02:54.519Z,2.20
2018-05-07T11:03:57.046Z,3.07
2018-05-07T11:05:00.327Z,2.60
2018-05-07T11:06:02.864Z,3.03
2018-05-07T11:07:05.428Z,2.13
2018-05-07T11:08:07.973Z,2.23
2018-05-07T11:09:10.505Z,2.50
2018-05-07T11:10:13.796Z,2.73
2018-05-07T11:11:16.368Z,2.67
2018-05-07T11:12:18.905Z,2.70
2018-05-07T11:13:21.443Z,2.27
2018-05-07T11:14:23.970Z,2.43
2018-05-07T11:15:26.539Z,2.30
2018-05-07T11:16:29.064Z,2.13
2018-05-07T11:17:31.629Z,2.53
2018-05-07T11:18:34.931Z,2.30
2018-05-07T11:19:38.257Z,2.40
2018-05-07T11:20:40.814Z,2.77
2018-05-07T11:21:43.340Z,2.20
2018-05-07T11:22:45.873Z,2.10
2018-05-07T11:23:48.415Z,2.17
2018-05-07T11:24:50.979Z,2.10
2018-05-07T11:25:53.505Z,2.00
2018-05-07T11:26:56.836Z,2.10
2018-05-07T11:27:59.395Z,2.20
2018-05-07T11:29:01.921Z,2.13
2018-05-07T11:30:04.451Z,2.33
2018-05-07T11:31:07.035Z,1.90
2018-05-07T11:32:09.557Z,2.10
2018-05-07T11:33:12.130Z,2.00
2018-05-07T11:34:14.657Z,2.07
2018-05-07T11:35:17.960Z,2.03
2018-05-07T11:36:21.250Z,2.40
2018-05-07T11:37:23.773Z,2.43
2018-05-07T11:38:26.340Z,2.23
2018-05-07T11:39:28.869Z,2.17
2018-05-07T11:40:31.398Z,1.80
2018-05-07T11:41:34.688Z,2.20
2018-05-07T11:42:37.984Z,2.30
2018-05-07T11:43:40.544Z,1.70
2018-05-07T11:44:43.836Z,1.80
2018-05-07T11:45:46.386Z,1.90
2018-05-07T11:46:49.672Z,2.23
2018-05-07T11:47:52.964Z,1.60
2018-05-07T11:48:55.533Z,2.20
2018-05-07T11:49:58.064Z,2.23
2018-05-07T11:51:00.598Z,1.93
2018-05-07T11:52:03.128Z,1.80
2018-05-07T11:53:05.668Z,1.80
2018-05-07T11:54:08.225Z,1.93
2018-05-07T11:55:10.747Z,2.03
2018-05-07T11:56:13.273Z,1.60
2018-05-07T11:57:16.596Z,1.87
2018-05-07T11:58:19.128Z,1.93
2018-05-07T11:59:22.414Z,1.60
2018-05-07T12:00:25.713Z,1.87
2018-05-07T12:01:28.290Z,2.17
2018-05-07T12:02:30.845Z,2.33
2018-05-07T12:03:34.129Z,2.40
2018-05-07T12:04:36.655Z,1.83
2018-05-07T12:05:39.191Z,2.07
2018-05-07T12:06:41.758Z,1.60
2018-05-07T12:07:44.298Z,1.90
2018-05-07T12:08:46.825Z,2.00
2018-05-07T12:09:49.356Z,2.07
2018-05-07T12:10:51.872Z,1.57
2018-05-07T12:11:55.212Z,1.97
2018-05-07T12:12:57.767Z,2.00
2018-05-07T12:14:00.334Z,1.67
2018-05-07T12:15:02.861Z,1.80
2018-05-07T12:16:06.187Z,1.50
2018-05-07T12:17:08.751Z,2.00
2018-05-07T12:18:11.276Z,1.90
2018-05-07T12:19:14.559Z,1.80
2018-05-07T12:20:17.852Z,1.80
2018-05-07T12:21:21.147Z,1.77
2018-05-07T12:22:23.729Z,2.73
2018-05-07T12:23:26.254Z,2.00
2018-05-07T12:24:28.789Z,1.80
2018-05-07T12:25:31.319Z,1.80
2018-05-07T12:26:33.846Z,1.93
2018-05-07T12:27:36.405Z,2.70
2018-05-07T12:28:38.928Z,2.13
2018-05-07T12:29:41.441Z,2.47
2018-05-07T12:30:43.956Z,1.90
2018-05-07T12:32:55.294Z,1.90
2018-05-07T12:33:57.825Z,1.47
2018-05-07T12:35:00.344Z,1.90
2018-05-07T12:36:03.635Z,1.70
2018-05-07T12:37:06.159Z,1.87
2018-05-07T12:38:08.729Z,1.80
2018-05-07T12:39:11.250Z,1.87
2018-05-07T12:40:13.775Z,2.20
2018-05-07T12:41:16.291Z,2.07
2018-05-07T12:42:18.808Z,1.90
2018-05-07T12:43:21.375Z,1.60
2018-05-07T12:44:24.672Z,1.83
2018-05-07T12:45:27.961Z,1.70
2018-05-07T12:46:31.246Z,1.60
2018-05-07T12:47:34.548Z,1.87
2018-05-07T12:48:37.125Z,2.00
2018-05-07T12:49:39.658Z,1.83
2018-05-07T12:50:42.945Z,1.70
2018-05-07T12:51:46.224Z,1.93
2018-05-07T12:52:49.503Z,2.00
2018-05-07T12:53:52.837Z,2.10
2018-05-07T12:54:55.354Z,1.70
2018-05-07T12:55:58.697Z,1.90
2018-05-07T12:57:01.222Z,1.90
2018-05-07T12:58:03.762Z,1.97
2018-05-07T12:59:07.100Z,2.13
2018-05-07T13:00:09.605Z,1.50
2018-05-07T13:01:12.933Z,2.00
2018-05-07T13:02:15.459Z,1.60
2018-05-07T13:03:18.040Z,1.80
2018-05-07T13:04:21.356Z,2.10
2018-05-07T13:05:23.867Z,1.80
2018-05-07T13:06:26.415Z,2.00
2018-05-07T13:07:28.935Z,2.20
2018-05-07T13:08:31.468Z,1.73
2018-05-07T13:09:34.003Z,1.60
2018-05-07T13:10:36.528Z,1.80
2018-05-07T13:11:39.093Z,1.80
2018-05-07T13:12:42.375Z,1.60
2018-05-07T13:13:45.659Z,1.80
2018-05-07T13:14:48.937Z,1.83
2018-05-07T13:15:52.229Z,1.73
2018-05-07T13:16:55.542Z,1.90
2018-05-07T13:17:58.065Z,1.73
2018-05-07T13:19:00.591Z,1.90
2018-05-07T13:20:03.112Z,1.57
2018-05-07T13:21:05.632Z,2.23
2018-05-07T13:22:08.189Z,1.60
2018-05-07T13:23:11.480Z,1.70
2018-05-07T13:24:14.003Z,1.80
2018-05-07T13:25:16.527Z,1.73
2018-05-07T13:26:19.035Z,2.00
2018-05-07T13:27:21.598Z,1.60
2018-05-07T13:28:24.131Z,1.97
2018-05-07T13:29:26.661Z,2.20
2018-05-07T13:30:29.183Z,1.77
2018-05-07T13:31:32.507Z,2.03
2018-05-07T13:32:35.063Z,1.90
2018-05-07T13:33:37.594Z,1.90
2018-05-07T13:34:40.887Z,1.53
2018-05-07T13:35:44.179Z,1.80
2018-05-07T13:36:46.775Z,1.70
2018-05-07T13:37:49.368Z,1.60
2018-05-07T13:38:51.889Z,1.23
2018-05-07T13:39:54.403Z,1.60
2018-05-07T13:40:56.922Z,1.73
2018-05-07T13:41:59.440Z,1.77
2018-05-07T13:43:01.987Z,1.50
2018-05-07T13:44:04.519Z,1.43
2018-05-07T13:45:07.040Z,1.70
2018-05-07T13:46:09.561Z,1.40
2018-05-07T13:47:12.125Z,1.70
2018-05-07T13:48:14.654Z,2.10
2018-05-07T13:49:17.198Z,1.77
2018-05-07T13:50:19.720Z,2.03
2018-05-07T13:51:22.249Z,1.90
2018-05-07T13:52:25.571Z,1.50
2018-05-07T13:53:28.089Z,1.53
2018-05-07T13:54:30.603Z,1.83
2018-05-07T13:55:33.128Z,1.93
2018-05-07T13:56:36.427Z,1.77
2018-05-07T13:57:39.002Z,1.70
2018-05-07T13:58:41.525Z,1.73
2018-05-07T13:59:44.049Z,1.57
2018-05-07T14:00:46.572Z,2.00